Time,TemperatureF,DewpointF,PressureIn,WindDirection,WindDirectionDegrees,WindSpeedMPH,WindSpeedGustMPH,Humidity,HourlyPrecipIn,Conditions,Clouds,dailyrainin,SoftwareType,DateUTC
2013-01-19 00:02:00,36.8,34.4,30.18,NNE,18,0.0,0.0,91,0.00,,,0.00,WeatherDisplay:10.37,2013-01-19 08:02:00,
2013-01-19 00:07:00,36.9,34.5,30.18,NNE,18,0.0,0.0,91,0.00,,,0.00,WeatherDisplay:10.37,2013-01-19 08:07:00,
2013-01-19 00:12:00,36.8,34.4,30.18,NNE,18,0.0,0.0,91,0.00,,,0.00,WeatherDisplay:10.37,2013-01-19 08:12:00,
2013-01-19 00:17:00,36.7,34.3,30.18,NNE,18,0.0,0.0,91,0.00,,,0.00,WeatherDisplay:10.37,2013-01-19 08:17:00,
2013-01-19 00:22:00,36.5,34.1,30.18,NNE,18,0.0,0.0,91,0.00,,,0.00,WeatherDisplay:10.37,2013-01-19 08:22:00,
2013-01-19 00:27:00,36.4,34.0,30.18,NNE,18,0.0,0.0,91,0.00,,,0.00,WeatherDisplay:10.37,2013-01-19 08:27:00,
2013-01-19 00:32:00,36.3,33.9,30.18,NNE,18,0.0,0.0,91,0.00,,,0.00,WeatherDisplay:10.37,2013-01-19 08:32:00,
2013-01-19 00:37:00,36.2,33.8,30.18,NNE,18,0.0,0.0,91,0.00,,,0.00,WeatherDisplay:10.37,2013-01-19 08:37:00,
2013-01-19 00:42:00,36.1,33.7,30.18,NNE,18,0.0,0.0,91,0.00,,,0.00,WeatherDisplay:10.37,2013-01-19 08:42:00,
2013-01-19 00:47:00,35.9,33.5,30.18,NNE,18,0.0,0.0,91,0.00,,,0.00,WeatherDisplay:10.37,2013-01-19 08:47:00,
2013-01-19 00:53:00,35.8,33.4,30.18,NNE,18,0.0,0.0,91,0.00,,,0.00,WeatherDisplay:10.37,2013-01-19 08:53:00,
2013-01-19 00:58:00,35.7,33.3,30.18,NNE,18,0.0,0.0,91,0.00,,,0.00,WeatherDisplay:10.37,2013-01-19 08:58:00,
2013-01-19 01:03:00,35.8,33.7,30.18,NNE,18,0.0,0.0,92,0.00,,,0.00,WeatherDisplay:10.37,2013-01-19 09:03:00,
2013-01-19 01:08:00,35.8,33.4,30.18,NNE,18,0.0,0.0,91,0.00,,,0.00,WeatherDisplay:10.37,2013-01-19 09:08:00,
2013-01-19 01:13:00,35.7,33.3,30.19,NNE,18,0.0,0.0,91,0.00,,,0.00,WeatherDisplay:10.37,2013-01-19 09:13:00,
2013-01-19 01:18:00,35.7,33.6,30.18,NNE,18,0.0,0.0,92,0.00,,,0.00,WeatherDisplay:10.37,2013-01-19 09:18:00,
2013-01-19 01:23:00,35.8,33.7,30.18,NNE,18,0.0,0.0,92,0.00,,,0.00,WeatherDisplay:10.37,2013-01-19 09:23:00,
2013-01-19 01:28:00,35.8,33.7,30.18,NNE,18,0.0,0.0,92,0.00,,,0.00,WeatherDisplay:10.37,2013-01-19 09:28:00,
2013-01-19 01:33:00,35.9,33.8,30.19,NNE,18,0.0,0.0,92,0.00,,,0.00,WeatherDisplay:10.37,2013-01-19 09:33:00,
2013-01-19 01:38:00,35.9,33.8,30.19,NNE,19,0.0,0.0,92,0.00,,,0.00,WeatherDisplay:10.37,2013-01-19 09:38:00,
2013-01-19 01:43:00,36.0,33.9,30.19,NNE,19,0.0,0.0,92,0.00,,,0.00,WeatherDisplay:10.37,2013-01-19 09:43:00,
2013-01-19 01:48:00,36.0,33.9,30.19,NNE,19,0.0,0.0,92,0.00,,,0.00,WeatherDisplay:10.37,2013-01-19 09:48:00,
2013-01-19 01:53:00,35.9,33.8,30.19,NNE,19,0.0,0.0,92,0.00,,,0.00,WeatherDisplay:10.37,2013-01-19 09:53:00,
2013-01-19 01:58:00,35.7,33.6,30.19,NNE,19,0.0,0.0,92,0.00,,,0.00,WeatherDisplay:10.37,2013-01-19 09:58:00,
2013-01-19 02:03:00,35.4,33.3,30.19,NNE,19,0.0,0.0,92,0.00,,,0.00,WeatherDisplay:10.37,2013-01-19 10:03:00,
2013-01-19 02:08:00,35.2,33.1,30.19,NNE,19,0.0,0.0,92,0.00,,,0.00,WeatherDisplay:10.37,2013-01-19 10:08:00,
2013-01-19 02:13:00,35.0,32.9,30.19,NNE,19,0.0,0.0,92,0.00,,,0.00,WeatherDisplay:10.37,2013-01-19 10:13:00,
2013-01-19 02:18:00,34.8,32.7,30.19,NNE,19,0.0,0.0,92,0.00,,,0.00,WeatherDisplay:10.37,2013-01-19 10:18:00,
2013-01-19 02:23:00,34.5,32.4,30.19,NNE,19,0.0,0.0,92,0.00,,,0.00,WeatherDisplay:10.37,2013-01-19 10:23:00,
2013-01-19 02:28:00,34.4,32.3,30.19,NNE,19,0.0,0.0,92,0.00,,,0.00,WeatherDisplay:10.37,2013-01-19 10:28:00,
2013-01-19 02:33:00,34.3,32.2,30.19,NNE,19,0.0,0.0,92,0.00,,,0.00,WeatherDisplay:10.37,2013-01-19 10:33:00,
2013-01-19 02:38:00,34.2,32.1,30.19,NNE,19,0.0,0.0,92,0.00,,,0.00,WeatherDisplay:10.37,2013-01-19 10:38:00,
2013-01-19 02:43:00,34.2,32.1,30.20,NNE,19,0.0,0.0,92,0.00,,,0.00,WeatherDisplay:10.37,2013-01-19 10:43:00,
2013-01-19 02:48:00,34.2,32.1,30.20,NNE,19,0.0,0.0,92,0.00,,,0.00,WeatherDisplay:10.37,2013-01-19 10:48:00,
2013-01-19 02:53:00,34.1,32.0,30.20,NNE,19,0.0,0.0,92,0.00,,,0.00,WeatherDisplay:10.37,2013-01-19 10:53:00,
2013-01-19 02:58:00,33.9,31.8,30.20,NNE,19,0.0,0.0,92,0.00,,,0.00,WeatherDisplay:10.37,2013-01-19 10:58:00,
2013-01-19 03:03:00,33.8,31.7,30.20,NNE,19,0.0,0.0,92,0.00,,,0.00,WeatherDisplay:10.37,2013-01-19 11:03:00,
2013-01-19 03:08:00,33.8,31.7,30.20,NNE,19,0.0,0.0,92,0.00,,,0.00,WeatherDisplay:10.37,2013-01-19 11:08:00,
2013-01-19 03:13:00,33.8,31.7,30.20,NNE,19,0.0,0.0,92,0.00,,,0.00,WeatherDisplay:10.37,2013-01-19 11:13:00,
2013-01-19 04:48:00,32.1,30.0,30.20,NNE,19,0.0,0.0,92,0.00,,,0.00,WeatherDisplay:10.37,2013-01-19 12:48:00,
2013-01-19 04:50:00,32.1,30.0,30.20,NNE,19,0.0,0.0,92,0.00,,,0.00,WeatherDisplay:10.37,2013-01-19 12:50:00,
2013-01-19 04:55:00,32.0,29.9,30.20,NNE,19,0.0,0.0,92,0.00,,,0.00,WeatherDisplay:10.37,2013-01-19 12:55:00,
2013-01-19 05:00:00,32.0,30.2,30.20,NNE,19,0.0,0.0,93,0.00,,,0.00,WeatherDisplay:10.37,2013-01-19 13:00:00,
2013-01-19 05:05:00,32.1,30.3,30.21,NNE,19,0.0,0.0,93,0.00,,,0.00,WeatherDisplay:10.37,2013-01-19 13:05:00,
2013-01-19 05:10:00,32.1,30.3,30.21,NNE,19,0.0,0.0,93,0.00,,,0.00,WeatherDisplay:10.37,2013-01-19 13:10:00,
2013-01-19 05:15:00,32.0,30.2,30.21,NNE,19,0.0,0.0,93,0.00,,,0.00,WeatherDisplay:10.37,2013-01-19 13:15:00,
2013-01-19 05:20:00,31.8,30.0,30.21,NNE,19,0.0,0.0,93,0.00,,,0.00,WeatherDisplay:10.37,2013-01-19 13:20:00,
2013-01-19 05:25:00,31.7,29.9,30.21,NNE,19,0.0,0.0,93,0.00,,,0.00,WeatherDisplay:10.37,2013-01-19 13:25:00,
2013-01-19 05:30:00,31.6,29.8,30.21,NNE,19,0.0,0.0,93,0.00,,,0.00,WeatherDisplay:10.37,2013-01-19 13:30:00,
2013-01-19 05:35:00,31.7,29.9,30.21,NNE,19,0.0,0.0,93,0.00,,,0.00,WeatherDisplay:10.37,2013-01-19 13:35:00,
2013-01-19 05:40:00,31.7,29.9,30.22,NNE,19,0.0,0.0,93,0.00,,,0.00,WeatherDisplay:10.37,2013-01-19 13:40:00,
2013-01-19 05:45:00,31.7,29.9,30.22,NNE,19,0.0,0.0,93,0.00,,,0.00,WeatherDisplay:10.37,2013-01-19 13:45:00,
2013-01-19 05:50:00,31.6,29.8,30.22,NNE,19,0.0,0.0,93,0.00,,,0.00,WeatherDisplay:10.37,2013-01-19 13:50:00,
2013-01-19 05:55:00,31.3,29.5,30.22,NNE,19,0.0,0.0,93,0.00,,,0.00,WeatherDisplay:10.37,2013-01-19 13:55:00,
2013-01-19 06:00:00,31.2,29.4,30.22,NNE,19,0.0,0.0,93,0.00,,,0.00,WeatherDisplay:10.37,2013-01-19 14:00:00,
2013-01-19 06:05:00,31.0,29.2,30.22,NNE,19,0.0,0.0,93,0.00,,,0.00,WeatherDisplay:10.37,2013-01-19 14:05:00,
2013-01-19 06:10:00,31.0,29.2,30.22,NNE,19,0.0,0.0,93,0.00,,,0.00,WeatherDisplay:10.37,2013-01-19 14:10:00,
2013-01-19 06:15:00,31.1,29.3,30.22,NNE,19,0.0,0.0,93,0.00,,,0.00,WeatherDisplay:10.37,2013-01-19 14:15:00,
2013-01-19 06:20:00,31.1,29.3,30.22,NNE,19,0.0,0.0,93,0.00,,,0.00,WeatherDisplay:10.37,2013-01-19 14:20:00,
2013-01-19 06:25:00,31.2,29.4,30.22,NNE,19,0.0,0.0,93,0.00,,,0.00,WeatherDisplay:10.37,2013-01-19 14:25:00,
2013-01-19 06:31:00,31.3,29.5,30.22,NNE,19,0.0,0.0,93,0.00,,,0.00,WeatherDisplay:10.37,2013-01-19 14:31:00,
2013-01-19 06:36:00,31.2,29.4,30.22,NNE,19,0.0,0.0,93,0.00,,,0.00,WeatherDisplay:10.37,2013-01-19 14:36:00,
2013-01-19 06:41:00,31.1,29.3,30.23,NNE,19,0.0,0.0,93,0.00,,,0.00,WeatherDisplay:10.37,2013-01-19 14:41:00,
2013-01-19 06:46:00,31.1,29.3,30.23,NNE,19,0.0,0.0,93,0.00,,,0.00,WeatherDisplay:10.37,2013-01-19 14:46:00,
2013-01-19 06:51:00,31.0,29.2,30.23,NNE,19,0.0,0.0,93,0.00,,,0.00,WeatherDisplay:10.37,2013-01-19 14:51:00,
2013-01-19 06:56:00,30.8,29.0,30.23,NNE,19,0.0,0.0,93,0.00,,,0.00,WeatherDisplay:10.37,2013-01-19 14:56:00,
2013-01-19 07:01:00,30.8,29.0,30.23,NNE,19,0.0,0.0,93,0.00,CLR,,0.00,WeatherDisplay:10.37,2013-01-19 15:01:00,
2013-01-19 07:06:00,30.7,28.9,30.23,NNE,19,0.0,0.0,93,0.00,CLR,,0.00,WeatherDisplay:10.37,2013-01-19 15:06:00,
2013-01-19 07:11:00,30.8,29.0,30.23,NNE,19,0.0,0.0,93,0.00,CLR,,0.00,WeatherDisplay:10.37,2013-01-19 15:11:00,
2013-01-19 07:16:00,30.8,29.0,30.23,NNE,19,0.0,0.0,93,0.00,CLR,,0.00,WeatherDisplay:10.37,2013-01-19 15:16:00,
2013-01-19 07:21:00,30.9,29.1,30.23,NNE,19,0.0,0.0,93,0.00,CLR,,0.00,WeatherDisplay:10.37,2013-01-19 15:21:00,
2013-01-19 07:26:00,30.8,29.0,30.23,NNE,19,0.0,0.0,93,0.00,CLR,,0.00,WeatherDisplay:10.37,2013-01-19 15:26:00,
2013-01-19 07:31:00,30.7,28.9,30.23,NNE,19,0.0,0.0,93,0.00,CLR,,0.00,WeatherDisplay:10.37,2013-01-19 15:31:00,
2013-01-19 07:36:00,30.6,28.8,30.23,NNE,19,0.0,0.0,93,0.00,CLR,,0.00,WeatherDisplay:10.37,2013-01-19 15:36:00,
2013-01-19 07:41:00,30.7,28.9,30.23,NNE,19,0.0,0.0,93,0.00,CLR,,0.00,WeatherDisplay:10.37,2013-01-19 15:41:00,
2013-01-19 07:46:00,30.8,29.0,30.23,NNE,19,0.0,0.0,93,0.00,CLR,,0.00,WeatherDisplay:10.37,2013-01-19 15:46:00,
2013-01-19 07:51:00,30.8,29.0,30.24,NNE,19,0.0,0.0,93,0.00,CLR,,0.00,WeatherDisplay:10.37,2013-01-19 15:51:00,
2013-01-19 07:56:00,30.9,29.1,30.24,NNE,19,0.0,0.0,93,0.00,CLR,,0.00,WeatherDisplay:10.37,2013-01-19 15:56:00,
2013-01-19 08:01:00,31.1,29.3,30.24,NNE,19,0.0,0.0,93,0.00,CLR,,0.00,WeatherDisplay:10.37,2013-01-19 16:01:00,
2013-01-19 08:06:00,31.3,29.5,30.24,NNE,19,0.0,0.0,93,0.00,CLR,,0.00,WeatherDisplay:10.37,2013-01-19 16:06:00,
2013-01-19 08:11:00,31.7,29.9,30.24,NNE,22,2.0,0.0,93,0.00,CLR,,0.00,WeatherDisplay:10.37,2013-01-19 16:11:00,
2013-01-19 08:16:00,32.2,30.4,30.24,NNE,20,0.0,0.0,93,0.00,CLR,,0.00,WeatherDisplay:10.37,2013-01-19 16:16:00,
2013-01-19 08:21:00,32.5,30.7,30.24,NNE,20,0.0,0.0,93,0.00,CLR,,0.00,WeatherDisplay:10.37,2013-01-19 16:21:00,
2013-01-19 08:26:00,32.7,30.9,30.24,NNE,20,0.0,0.0,93,0.00,CLR,,0.00,WeatherDisplay:10.37,2013-01-19 16:26:00,
2013-01-19 08:31:00,33.1,31.3,30.24,NNE,20,0.0,0.0,93,0.00,CLR,,0.00,WeatherDisplay:10.37,2013-01-19 16:31:00,
2013-01-19 08:36:00,33.6,31.8,30.25,NNE,20,0.0,0.0,93,0.00,CLR,,0.00,WeatherDisplay:10.37,2013-01-19 16:36:00,
2013-01-19 08:41:00,34.2,32.4,30.25,NNE,20,0.0,0.0,93,0.00,CLR,,0.00,WeatherDisplay:10.37,2013-01-19 16:41:00,
2013-01-19 08:46:00,34.9,33.1,30.25,North,8,0.0,0.0,93,0.00,CLR,,0.00,WeatherDisplay:10.37,2013-01-19 16:46:00,
2013-01-19 08:51:00,35.5,33.7,30.25,North,8,0.0,0.0,93,0.00,CLR,,0.00,WeatherDisplay:10.37,2013-01-19 16:51:00,
2013-01-19 08:56:00,35.8,34.0,30.25,North,9,0.0,0.0,93,0.00,CLR,,0.00,WeatherDisplay:10.37,2013-01-19 16:56:00,
2013-01-19 09:01:00,36.2,34.4,30.25,North,9,0.0,0.0,93,0.00,CLR,,0.00,WeatherDisplay:10.37,2013-01-19 17:01:00,
2013-01-19 09:06:00,37.0,35.2,30.25,SW,231,0.0,0.0,93,0.00,CLR,,0.00,WeatherDisplay:10.37,2013-01-19 17:06:00,
2013-01-19 09:11:00,38.3,36.5,30.26,SW,225,0.0,0.0,93,0.00,CLR,,0.00,WeatherDisplay:10.37,2013-01-19 17:11:00,
2013-01-19 09:16:00,39.1,37.2,30.26,SW,225,0.0,0.0,93,0.00,CLR,,0.00,WeatherDisplay:10.37,2013-01-19 17:16:00,
2013-01-19 09:21:00,40.0,38.1,30.26,WSW,240,0.0,0.0,93,0.00,CLR,,0.00,WeatherDisplay:10.37,2013-01-19 17:21:00,
2013-01-19 09:27:00,41.3,39.7,30.26,West,270,0.0,0.0,94,0.00,CLR,,0.00,WeatherDisplay:10.37,2013-01-19 17:27:00,
2013-01-19 09:32:00,41.9,40.3,30.26,West,271,0.0,0.0,94,0.00,CLR,,0.00,WeatherDisplay:10.37,2013-01-19 17:32:00,
2013-01-19 09:37:00,42.4,40.8,30.27,West,271,0.0,0.0,94,0.00,CLR,,0.00,WeatherDisplay:10.37,2013-01-19 17:37:00,
2013-01-19 09:42:00,43.1,41.5,30.27,West,273,0.0,0.0,94,0.00,CLR,,0.00,WeatherDisplay:10.37,2013-01-19 17:42:00,
2013-01-19 09:47:00,43.7,42.1,30.27,NE,51,0.0,0.0,94,0.00,CLR,,0.00,WeatherDisplay:10.37,2013-01-19 17:47:00,
2013-01-19 09:53:00,44.6,43.0,30.27,North,360,2.3,2.3,94,0.00,CLR,,0.00,WeatherDisplay:10.37,2013-01-19 17:53:00,
2013-01-19 09:58:00,45.5,43.9,30.27,NNE,25,1.2,1.2,94,0.00,CLR,,0.00,WeatherDisplay:10.37,2013-01-19 17:58:00,
2013-01-19 10:03:00,46.0,43.2,30.27,ESE,103,0.0,0.0,90,0.00,CLR,,0.00,WeatherDisplay:10.37,2013-01-19 18:03:00,
2013-01-19 10:08:00,46.5,42.8,30.27,ESE,102,0.0,0.0,87,0.00,CLR,,0.00,WeatherDisplay:10.37,2013-01-19 18:08:00,
2013-01-19 10:13:00,46.9,42.6,30.27,ENE,60,1.2,1.2,85,0.00,CLR,,0.00,WeatherDisplay:10.37,2013-01-19 18:13:00,
2013-01-19 10:20:00,47.6,41.7,30.26,NNE,20,3.5,3.5,80,0.00,CLR,,0.00,WeatherDisplay:10.37,2013-01-19 18:20:00,
2013-01-19 10:25:00,48.3,42.1,30.27,NE,37,0.0,0.0,79,0.00,CLR,,0.00,WeatherDisplay:10.37,2013-01-19 18:25:00,
2013-01-19 10:30:00,48.8,41.9,30.26,NE,49,0.0,0.0,77,0.00,CLR,,0.00,WeatherDisplay:10.37,2013-01-19 18:30:00,
2013-01-19 10:35:00,49.3,42.1,30.26,WNW,293,2.3,2.3,76,0.00,CLR,,0.00,WeatherDisplay:10.37,2013-01-19 18:35:00,
2013-01-19 10:40:00,49.8,41.8,30.26,NNE,23,3.5,3.5,74,0.00,CLR,,0.00,WeatherDisplay:10.37,2013-01-19 18:40:00,
2013-01-19 10:45:00,50.5,42.5,30.25,NNW,347,1.2,1.2,74,0.00,CLR,,0.00,WeatherDisplay:10.37,2013-01-19 18:45:00,
2013-01-19 10:51:00,51.1,42.7,30.25,NNW,347,0.0,0.0,73,0.00,CLR,,0.00,WeatherDisplay:10.37,2013-01-19 18:51:00,
2013-01-19 10:56:00,51.9,42.0,30.25,ENE,60,0.0,0.6,69,0.00,CLR,,0.00,WeatherDisplay:10.37,2013-01-19 18:56:00,
2013-01-19 11:01:00,52.8,42.1,30.25,ENE,77,2.3,2.3,67,0.00,CLR,,0.00,WeatherDisplay:10.37,2013-01-19 19:01:00,
2013-01-19 11:07:00,53.9,42.0,30.24,ENE,77,0.0,0.0,64,0.00,CLR,,0.00,WeatherDisplay:10.37,2013-01-19 19:07:00,
2013-01-19 11:12:00,54.6,41.4,30.24,East,93,3.5,3.5,61,0.00,CLR,,0.00,WeatherDisplay:10.37,2013-01-19 19:12:00,
2013-01-19 11:17:00,55.3,41.6,30.24,ESE,102,3.5,3.5,60,0.00,CLR,,0.00,WeatherDisplay:10.37,2013-01-19 19:17:00,
2013-01-19 11:22:00,55.8,41.2,30.23,ESE,103,3.5,3.5,58,0.00,CLR,,0.00,WeatherDisplay:10.37,2013-01-19 19:22:00,
2013-01-19 11:28:00,55.8,41.7,30.23,East,86,1.2,1.2,59,0.00,CLR,,0.00,WeatherDisplay:10.37,2013-01-19 19:28:00,
2013-01-19 11:33:00,56.3,42.1,30.23,North,1,3.5,3.5,59,0.00,CLR,,0.00,WeatherDisplay:10.37,2013-01-19 19:33:00,
2013-01-19 11:38:00,56.7,41.6,30.22,SW,222,2.3,2.3,57,0.00,CLR,,0.00,WeatherDisplay:10.37,2013-01-19 19:38:00,
2013-01-19 11:43:00,57.2,41.2,30.22,East,91,2.3,2.3,55,0.00,CLR,,0.00,WeatherDisplay:10.37,2013-01-19 19:43:00,
2013-01-19 11:49:00,57.8,41.3,30.22,ENE,66,3.5,3.5,54,0.00,CLR,,0.00,WeatherDisplay:10.37,2013-01-19 19:49:00,
2013-01-19 11:55:00,58.0,41.4,30.21,WNW,299,1.2,1.3,54,0.00,CLR,,0.00,WeatherDisplay:10.37,2013-01-19 19:55:00,
2013-01-19 12:00:00,58.5,41.4,30.21,NE,45,0.0,4.0,53,0.00,CLR,,0.00,WeatherDisplay:10.37,2013-01-19 20:00:00,
2013-01-19 12:05:00,58.9,41.3,30.21,NE,39,3.5,3.5,52,0.00,CLR,,0.00,WeatherDisplay:10.37,2013-01-19 20:05:00,
2013-01-19 12:10:00,59.3,41.7,30.20,NNW,335,2.3,0.0,52,0.00,CLR,,0.00,WeatherDisplay:10.37,2013-01-19 20:10:00,
2013-01-19 12:15:00,59.9,41.7,30.20,ENE,58,2.3,2.3,51,0.00,CLR,,0.00,WeatherDisplay:10.37,2013-01-19 20:15:00,
2013-01-19 12:21:00,60.1,41.4,30.20,SW,219,3.5,3.5,50,0.00,CLR,,0.00,WeatherDisplay:10.37,2013-01-19 20:21:00,
2013-01-19 12:26:00,60.5,42.3,30.19,East,91,1.2,1.2,51,0.00,CLR,,0.00,WeatherDisplay:10.37,2013-01-19 20:26:00,
2013-01-19 12:31:00,60.8,41.5,30.19,East,93,1.2,1.2,49,0.00,CLR,,0.00,WeatherDisplay:10.37,2013-01-19 20:31:00,
2013-01-19 12:36:00,61.7,42.3,30.19,NNE,33,3.5,3.5,49,0.00,CLR,,0.00,WeatherDisplay:10.37,2013-01-19 20:36:00,
2013-01-19 12:42:00,62.4,43.5,30.18,NE,53,2.0,2.0,50,0.00,CLR,,0.00,WeatherDisplay:10.37,2013-01-19 20:42:00,
2013-01-19 12:48:00,62.9,42.9,30.18,ENE,58,2.3,2.3,48,0.00,CLR,,0.00,WeatherDisplay:10.37,2013-01-19 20:48:00,
2013-01-19 12:53:00,63.0,43.0,30.18,West,259,1.2,1.2,48,0.00,CLR,,0.00,WeatherDisplay:10.37,2013-01-19 20:53:00,
2013-01-19 12:58:00,63.2,43.2,30.18,NW,308,2.3,2.3,48,0.00,CLR,,0.00,WeatherDisplay:10.37,2013-01-19 20:58:00,
2013-01-19 13:03:00,63.3,43.3,30.17,ENE,65,2.3,2.3,48,0.00,CLR,,0.00,WeatherDisplay:10.37,2013-01-19 21:03:00,
2013-01-19 13:08:00,63.0,43.0,30.17,SE,124,2.3,2.3,48,0.00,CLR,,0.00,WeatherDisplay:10.37,2013-01-19 21:08:00,
2013-01-19 13:14:00,63.2,43.2,30.17,NNE,16,2.0,2.0,48,0.00,CLR,,0.00,WeatherDisplay:10.37,2013-01-19 21:14:00,
2013-01-19 13:19:00,63.2,42.6,30.17,ENE,60,3.5,3.5,47,0.00,CLR,,0.00,WeatherDisplay:10.37,2013-01-19 21:19:00,
2013-01-19 13:24:00,63.0,43.0,30.17,ENE,62,1.2,1.2,48,0.00,CLR,,0.00,WeatherDisplay:10.37,2013-01-19 21:24:00,
2013-01-19 13:30:00,63.7,43.6,30.16,WNW,292,1.2,1.2,48,0.00,CLR,,0.00,WeatherDisplay:10.37,2013-01-19 21:30:00,
2013-01-19 13:35:00,64.3,43.1,30.16,NE,36,3.5,3.5,46,0.00,CLR,,0.00,WeatherDisplay:10.37,2013-01-19 21:35:00,
2013-01-19 13:40:00,64.3,43.1,30.16,NNE,33,0.0,0.0,46,0.00,CLR,,0.00,WeatherDisplay:10.37,2013-01-19 21:40:00,
2013-01-19 13:46:00,65.4,44.1,30.16,West,277,1.2,1.2,46,0.00,CLR,,0.00,WeatherDisplay:10.37,2013-01-19 21:46:00,
2013-01-19 13:51:00,65.7,43.8,30.16,East,79,2.0,2.0,45,0.00,CLR,,0.00,WeatherDisplay:10.37,2013-01-19 21:51:00,
2013-01-19 13:56:00,65.3,42.8,30.16,ENE,71,1.2,1.2,44,0.00,CLR,,0.00,WeatherDisplay:10.37,2013-01-19 21:56:00,
2013-01-19 14:02:00,65.4,43.5,30.15,WSW,257,1.2,1.2,45,0.00,CLR,,0.00,WeatherDisplay:10.37,2013-01-19 22:02:00,
2013-01-19 14:07:00,65.7,42.6,30.16,NW,325,1.2,1.2,43,0.00,CLR,,0.00,WeatherDisplay:10.37,2013-01-19 22:07:00,
2013-01-19 14:13:00,66.0,44.0,30.15,NW,314,0.0,0.7,45,0.00,CLR,,0.00,WeatherDisplay:10.37,2013-01-19 22:13:00,
2013-01-19 14:18:00,66.1,42.3,30.15,NE,48,2.3,2.3,42,0.00,CLR,,0.00,WeatherDisplay:10.37,2013-01-19 22:18:00,
2013-01-19 14:23:00,65.7,42.0,30.15,NE,53,1.2,1.2,42,0.00,CLR,,0.00,WeatherDisplay:10.37,2013-01-19 22:23:00,
2013-01-19 14:28:00,65.2,41.5,30.15,East,84,1.2,1.2,42,0.00,CLR,,0.00,WeatherDisplay:10.37,2013-01-19 22:28:00,
2013-01-19 14:33:00,65.0,41.9,30.15,ESE,116,1.2,1.2,43,0.00,CLR,,0.00,WeatherDisplay:10.37,2013-01-19 22:33:00,
2013-01-19 14:38:00,65.0,41.9,30.15,NE,47,3.5,3.5,43,0.00,CLR,,0.00,WeatherDisplay:10.37,2013-01-19 22:38:00,
2013-01-19 14:44:00,64.8,41.8,30.15,ENE,68,1.2,0.0,43,0.00,CLR,,0.00,WeatherDisplay:10.37,2013-01-19 22:44:00,
2013-01-19 14:49:00,64.6,41.6,30.15,ENE,71,0.0,0.0,43,0.00,CLR,,0.00,WeatherDisplay:10.37,2013-01-19 22:49:00,
2013-01-19 14:54:00,64.8,42.4,30.15,NNE,16,0.0,0.5,44,0.00,CLR,,0.00,WeatherDisplay:10.37,2013-01-19 22:54:00,
2013-01-19 14:59:00,65.1,42.6,30.15,NNE,15,0.0,0.0,44,0.00,CLR,,0.00,WeatherDisplay:10.37,2013-01-19 22:59:00,
2013-01-19 15:05:00,65.3,42.8,30.15,NNE,33,0.0,0.0,44,0.00,CLR,,0.00,WeatherDisplay:10.37,2013-01-19 23:05:00,
2013-01-19 15:10:00,65.4,42.3,30.15,NNE,15,1.2,1.3,43,0.00,CLR,,0.00,WeatherDisplay:10.37,2013-01-19 23:10:00,
2013-01-19 15:15:00,65.2,43.3,30.15,NNE,33,0.0,0.0,45,0.00,CLR,,0.00,WeatherDisplay:10.37,2013-01-19 23:15:00,
2013-01-19 15:20:00,65.3,42.8,30.15,ESE,107,0.0,0.0,44,0.00,CLR,,0.00,WeatherDisplay:10.37,2013-01-19 23:20:00,
2013-01-19 15:25:00,65.8,43.3,30.14,WSW,252,0.0,0.0,44,0.00,CLR,,0.00,WeatherDisplay:10.37,2013-01-19 23:25:00,
2013-01-19 15:30:00,66.0,42.9,30.14,NE,46,2.3,2.3,43,0.00,CLR,,0.00,WeatherDisplay:10.37,2013-01-19 23:30:00,
2013-01-19 15:35:00,65.6,42.5,30.15,ESE,123,1.2,1.2,43,0.00,CLR,,0.00,WeatherDisplay:10.37,2013-01-19 23:35:00,
2013-01-19 15:41:00,65.5,43.0,30.15,ESE,113,1.2,1.2,44,0.00,CLR,,0.00,WeatherDisplay:10.37,2013-01-19 23:41:00,
2013-01-19 15:46:00,65.4,42.9,30.14,ESE,110,0.0,0.0,44,0.00,CLR,,0.00,WeatherDisplay:10.37,2013-01-19 23:46:00,
2013-01-19 15:51:00,65.5,43.0,30.15,NE,49,1.2,1.2,44,0.00,CLR,,0.00,WeatherDisplay:10.37,2013-01-19 23:51:00,
2013-01-19 15:58:00,65.2,43.3,30.14,NE,49,0.0,0.0,45,0.00,CLR,,0.00,WeatherDisplay:10.37,2013-01-19 23:58:00,
2013-01-19 16:04:00,64.7,42.9,30.14,NE,50,0.0,0.0,45,0.00,CLR,,0.00,WeatherDisplay:10.37,2013-01-20 00:04:00,
2013-01-19 16:09:00,64.2,43.0,30.14,NE,51,1.2,1.2,46,0.00,CLR,,0.00,WeatherDisplay:10.37,2013-01-20 00:09:00,
2013-01-19 16:14:00,64.0,43.4,30.14,NE,37,0.0,0.0,47,0.00,CLR,,0.00,WeatherDisplay:10.37,2013-01-20 00:14:00,
2013-01-19 16:19:00,63.7,43.1,30.14,NE,37,1.0,0.0,47,0.00,CLR,,0.00,WeatherDisplay:10.37,2013-01-20 00:19:00,
2013-01-19 16:24:00,63.2,43.2,30.14,NE,36,0.0,0.0,48,0.00,CLR,,0.00,WeatherDisplay:10.37,2013-01-20 00:24:00,
2013-01-19 16:29:00,62.7,43.3,30.14,NE,36,0.0,0.0,49,0.00,CLR,,0.00,WeatherDisplay:10.37,2013-01-20 00:29:00,
2013-01-19 16:35:00,62.2,42.8,30.14,NNE,32,0.0,0.0,49,0.00,CLR,,0.00,WeatherDisplay:10.37,2013-01-20 00:35:00,
2013-01-19 16:40:00,61.7,43.4,30.14,NNE,31,0.0,0.1,51,0.00,CLR,,0.00,WeatherDisplay:10.37,2013-01-20 00:40:00,
2013-01-19 16:45:00,61.1,43.3,30.14,NNE,31,0.0,0.0,52,0.00,CLR,,0.00,WeatherDisplay:10.37,2013-01-20 00:45:00,
2013-01-19 16:50:00,60.5,43.3,30.15,NNE,31,0.0,0.0,53,0.00,CLR,,0.00,WeatherDisplay:10.37,2013-01-20 00:50:00,
2013-01-19 16:55:00,59.8,43.1,30.14,NNE,31,0.0,0.0,54,0.00,CLR,,0.00,WeatherDisplay:10.37,2013-01-20 00:55:00,
2013-01-19 17:01:00,59.1,43.4,30.15,NNE,31,0.0,0.0,56,0.00,CLR,,0.00,WeatherDisplay:10.37,2013-01-20 01:01:00,
2013-01-19 17:06:00,58.5,44.2,30.15,NNE,31,0.0,0.0,59,0.00,CLR,,0.00,WeatherDisplay:10.37,2013-01-20 01:06:00,
2013-01-19 17:11:00,57.9,44.5,30.15,NNE,31,0.0,0.0,61,0.00,CLR,,0.00,WeatherDisplay:10.37,2013-01-20 01:11:00,
2013-01-19 17:17:00,57.1,43.8,30.15,NNE,31,0.0,0.0,61,0.00,CLR,,0.00,WeatherDisplay:10.37,2013-01-20 01:17:00,
2013-01-19 17:22:00,56.3,43.0,30.15,NNE,32,0.0,0.0,61,0.00,CLR,,0.00,WeatherDisplay:10.37,2013-01-20 01:22:00,
2013-01-19 17:27:00,55.5,43.5,30.15,NNE,31,0.0,0.0,64,0.00,CLR,,0.00,WeatherDisplay:10.37,2013-01-20 01:27:00,
2013-01-19 17:32:00,54.8,44.0,30.15,NNE,31,0.0,0.0,67,0.00,CLR,,0.00,WeatherDisplay:10.37,2013-01-20 01:32:00,
2013-01-19 17:37:00,54.1,43.8,30.15,NNE,32,0.0,0.0,68,0.00,CLR,,0.00,WeatherDisplay:10.37,2013-01-20 01:37:00,
2013-01-19 17:42:00,53.3,43.4,30.15,NNE,31,0.0,0.0,69,0.00,CLR,,0.00,WeatherDisplay:10.37,2013-01-20 01:42:00,
2013-01-19 17:48:00,52.6,43.1,30.15,NNE,32,0.0,0.0,70,0.00,CLR,,0.00,WeatherDisplay:10.37,2013-01-20 01:48:00,
2013-01-19 17:53:00,52.0,42.9,30.15,NNE,32,0.0,0.0,71,0.00,,,0.00,WeatherDisplay:10.37,2013-01-20 01:53:00,
2013-01-19 17:59:00,51.5,42.8,30.15,NNE,32,0.0,0.0,72,0.00,,,0.00,WeatherDisplay:10.37,2013-01-20 01:59:00,
2013-01-19 18:04:00,51.2,42.8,30.16,East,82,0.0,0.0,73,0.00,,,0.00,WeatherDisplay:10.37,2013-01-20 02:04:00,
2013-01-19 18:09:00,50.9,42.6,30.16,East,82,0.0,0.0,73,0.00,,,0.00,WeatherDisplay:10.37,2013-01-20 02:09:00,
2013-01-19 18:14:00,50.6,42.6,30.16,East,82,0.0,0.0,74,0.00,,,0.00,WeatherDisplay:10.37,2013-01-20 02:14:00,
2013-01-19 18:20:00,50.4,42.4,30.16,East,82,0.0,0.0,74,0.00,,,0.00,WeatherDisplay:10.37,2013-01-20 02:20:00,
2013-01-19 18:25:00,50.1,42.1,30.16,East,82,0.0,0.0,74,0.00,CLR,,0.00,WeatherDisplay:10.37,2013-01-20 02:25:00,
2013-01-19 18:30:00,49.9,42.3,30.17,East,82,0.0,0.0,75,0.00,,,0.00,WeatherDisplay:10.37,2013-01-20 02:30:00,
2013-01-19 18:35:00,49.6,42.0,30.17,East,82,0.0,0.0,75,0.00,,,0.00,WeatherDisplay:10.37,2013-01-20 02:35:00,
2013-01-19 18:40:00,49.3,42.1,30.17,East,82,1.2,1.2,76,0.00,,,0.00,WeatherDisplay:10.37,2013-01-20 02:40:00,
2013-01-19 18:45:00,48.9,41.7,30.17,East,82,0.0,0.0,76,0.00,,,0.00,WeatherDisplay:10.37,2013-01-20 02:45:00,
2013-01-19 18:51:00,48.5,41.6,30.17,East,82,0.0,0.0,77,0.00,,,0.00,WeatherDisplay:10.37,2013-01-20 02:51:00,
2013-01-19 18:57:00,48.2,41.3,30.17,East,82,0.0,0.0,77,0.00,,,0.00,WeatherDisplay:10.37,2013-01-20 02:57:00,
2013-01-19 19:03:00,47.7,40.8,30.18,East,82,0.0,0.0,77,0.00,,,0.00,WeatherDisplay:10.37,2013-01-20 03:03:00,
2013-01-19 19:08:00,47.4,40.9,30.18,East,82,0.0,0.0,78,0.00,,,0.00,WeatherDisplay:10.37,2013-01-20 03:08:00,
2013-01-19 19:14:00,47.0,40.5,30.18,East,82,0.0,0.0,78,0.00,,,0.00,WeatherDisplay:10.37,2013-01-20 03:14:00,
2013-01-19 19:19:00,46.6,40.4,30.18,East,82,0.0,0.0,79,0.00,,,0.00,WeatherDisplay:10.37,2013-01-20 03:19:00,
2013-01-19 19:24:00,46.3,40.1,30.18,East,82,0.0,0.0,79,0.00,,,0.00,WeatherDisplay:10.37,2013-01-20 03:24:00,
2013-01-19 19:29:00,46.0,40.2,30.18,East,82,0.0,0.0,80,0.00,,,0.00,WeatherDisplay:10.37,2013-01-20 03:29:00,
2013-01-19 19:34:00,45.6,39.8,30.18,East,82,0.0,0.0,80,0.00,,,0.00,WeatherDisplay:10.37,2013-01-20 03:34:00,
2013-01-19 19:39:00,45.4,40.2,30.18,East,82,0.0,0.0,82,0.00,,,0.00,WeatherDisplay:10.37,2013-01-20 03:39:00,
2013-01-19 19:45:00,45.3,40.4,30.19,East,82,0.0,0.0,83,0.00,,,0.00,WeatherDisplay:10.37,2013-01-20 03:45:00,
2013-01-19 19:50:00,45.1,40.2,30.19,East,82,0.0,0.0,83,0.00,,,0.00,WeatherDisplay:10.37,2013-01-20 03:50:00,
2013-01-19 19:55:00,44.9,40.4,30.19,East,93,0.0,0.0,84,0.00,,,0.00,WeatherDisplay:10.37,2013-01-20 03:55:00,
2013-01-19 20:01:00,44.9,40.4,30.19,East,93,0.0,0.0,84,0.00,CLR,,0.00,WeatherDisplay:10.37,2013-01-20 04:01:00,
2013-01-19 20:06:00,44.8,40.3,30.19,East,93,0.0,0.0,84,0.00,CLR,,0.00,WeatherDisplay:10.37,2013-01-20 04:06:00,
2013-01-19 20:12:00,44.8,40.6,30.19,East,93,0.0,0.0,85,0.00,CLR,,0.00,WeatherDisplay:10.37,2013-01-20 04:12:00,
2013-01-19 20:17:00,44.7,40.5,30.20,East,94,0.0,0.0,85,0.00,CLR,,0.00,WeatherDisplay:10.37,2013-01-20 04:17:00,
2013-01-19 20:22:00,44.5,40.3,30.20,East,93,0.0,0.0,85,0.00,CLR,,0.00,WeatherDisplay:10.37,2013-01-20 04:22:00,
2013-01-19 20:28:00,44.4,40.2,30.20,East,93,0.0,0.0,85,0.00,CLR,,0.00,WeatherDisplay:10.37,2013-01-20 04:28:00,
2013-01-19 20:32:00,44.2,40.0,30.20,East,93,0.0,0.0,85,0.00,CLR,,0.00,WeatherDisplay:10.37,2013-01-20 04:32:00,
2013-01-19 20:37:00,44.0,39.8,30.20,East,93,0.0,0.0,85,0.00,CLR,,0.00,WeatherDisplay:10.37,2013-01-20 04:37:00,
2013-01-19 20:43:00,43.8,39.6,30.20,East,93,0.0,0.0,85,0.00,CLR,,0.00,WeatherDisplay:10.37,2013-01-20 04:43:00,
2013-01-19 20:48:00,43.6,39.7,30.20,East,93,0.0,0.0,86,0.00,CLR,,0.00,WeatherDisplay:10.37,2013-01-20 04:48:00,
2013-01-19 20:53:00,43.3,39.4,30.21,East,93,0.0,0.0,86,0.00,CLR,,0.00,WeatherDisplay:10.37,2013-01-20 04:53:00,
2013-01-19 20:58:00,43.1,39.2,30.20,East,94,0.0,0.0,86,0.00,CLR,,0.00,WeatherDisplay:10.37,2013-01-20 04:58:00,
2013-01-19 21:00:00,43.1,39.2,30.21,East,93,0.0,0.0,86,0.00,CLR,,0.00,WeatherDisplay:10.37,2013-01-20 05:00:00,
2013-01-19 21:01:00,43.1,39.5,30.21,East,94,0.0,0.0,87,0.00,CLR,,0.00,WeatherDisplay:10.37,2013-01-20 05:01:00,
2013-01-19 21:03:00,43.1,39.5,30.21,East,94,0.0,0.0,87,0.00,CLR,,0.00,WeatherDisplay:10.37,2013-01-20 05:03:00,
2013-01-19 21:05:00,43.0,39.4,30.21,East,93,0.0,0.0,87,0.00,CLR,,0.00,WeatherDisplay:10.37,2013-01-20 05:05:00,
2013-01-19 21:10:00,42.9,39.3,30.21,East,93,0.0,0.0,87,0.00,CLR,,0.00,WeatherDisplay:10.37,2013-01-20 05:10:00,
2013-01-19 21:15:00,42.8,39.2,30.21,West,259,0.0,0.0,87,0.00,CLR,,0.00,WeatherDisplay:10.37,2013-01-20 05:15:00,
2013-01-19 21:20:00,42.7,39.1,30.21,West,259,0.0,0.0,87,0.00,CLR,,0.00,WeatherDisplay:10.37,2013-01-20 05:20:00,
2013-01-19 21:25:00,42.7,39.4,30.21,WSW,238,0.0,0.0,88,0.00,CLR,,0.00,WeatherDisplay:10.37,2013-01-20 05:25:00,
2013-01-19 21:30:00,42.5,38.9,30.21,SW,229,0.0,0.0,87,0.00,CLR,,0.00,WeatherDisplay:10.37,2013-01-20 05:30:00,
2013-01-19 21:35:00,42.4,38.8,30.21,SW,229,0.0,0.0,87,0.00,CLR,,0.00,WeatherDisplay:10.37,2013-01-20 05:35:00,
2013-01-19 21:40:00,42.2,38.9,30.22,SW,229,0.0,0.0,88,0.00,CLR,,0.00,WeatherDisplay:10.37,2013-01-20 05:40:00,
2013-01-19 21:45:00,41.9,38.3,30.22,SW,229,0.0,0.0,87,0.00,CLR,,0.00,WeatherDisplay:10.37,2013-01-20 05:45:00,
2013-01-19 21:50:00,41.7,38.1,30.22,SW,229,0.0,0.0,87,0.00,CLR,,0.00,WeatherDisplay:10.37,2013-01-20 05:50:00,
2013-01-19 21:55:00,41.4,37.8,30.21,SW,229,0.0,0.0,87,0.00,CLR,,0.00,WeatherDisplay:10.37,2013-01-20 05:55:00,
2013-01-19 22:00:00,41.2,37.9,30.22,SW,229,0.0,0.0,88,0.00,CLR,,0.00,WeatherDisplay:10.37,2013-01-20 06:00:00,
2013-01-19 22:05:00,41.0,37.7,30.22,SW,229,0.0,0.0,88,0.00,CLR,,0.00,WeatherDisplay:10.37,2013-01-20 06:05:00,
2013-01-19 22:10:00,40.9,37.6,30.22,SW,229,0.0,0.0,88,0.00,CLR,,0.00,WeatherDisplay:10.37,2013-01-20 06:10:00,
2013-01-19 22:15:00,40.8,37.8,30.22,SW,229,0.0,0.0,89,0.00,CLR,,0.00,WeatherDisplay:10.37,2013-01-20 06:15:00,
2013-01-19 22:20:00,40.7,37.7,30.22,SW,229,0.0,0.0,89,0.00,CLR,,0.00,WeatherDisplay:10.37,2013-01-20 06:20:00,
2013-01-19 22:25:00,40.7,37.7,30.22,SW,229,0.0,0.0,89,0.00,CLR,,0.00,WeatherDisplay:10.37,2013-01-20 06:25:00,
2013-01-19 22:30:00,40.5,37.5,30.22,SW,229,0.0,0.0,89,0.00,CLR,,0.00,WeatherDisplay:10.37,2013-01-20 06:30:00,
2013-01-19 22:35:00,40.3,37.3,30.23,SW,229,0.0,0.0,89,0.00,CLR,,0.00,WeatherDisplay:10.37,2013-01-20 06:35:00,
2013-01-19 22:40:00,40.2,37.2,30.23,SW,229,0.0,0.0,89,0.00,CLR,,0.00,WeatherDisplay:10.37,2013-01-20 06:40:00,
2013-01-19 22:45:00,39.9,36.9,30.23,SW,229,0.0,0.0,89,0.00,CLR,,0.00,WeatherDisplay:10.37,2013-01-20 06:45:00,
2013-01-19 22:50:00,39.8,36.8,30.22,SW,229,0.0,0.0,89,0.00,CLR,,0.00,WeatherDisplay:10.37,2013-01-20 06:50:00,
2013-01-19 22:55:00,39.6,36.6,30.23,SW,229,0.0,0.0,89,0.00,CLR,,0.00,WeatherDisplay:10.37,2013-01-20 06:55:00,
2013-01-19 23:00:00,39.4,36.4,30.23,SW,229,0.0,0.0,89,0.00,,,0.00,WeatherDisplay:10.37,2013-01-20 07:00:00,
2013-01-19 23:05:00,39.3,36.6,30.23,SW,229,0.0,0.0,90,0.00,,,0.00,WeatherDisplay:10.37,2013-01-20 07:05:00,
2013-01-19 23:10:00,39.2,36.5,30.23,SW,229,0.0,0.0,90,0.00,,,0.00,WeatherDisplay:10.37,2013-01-20 07:10:00,
2013-01-19 23:15:00,39.0,36.3,30.23,SW,229,0.0,0.0,90,0.00,,,0.00,WeatherDisplay:10.37,2013-01-20 07:15:00,
2013-01-19 23:20:00,38.8,36.1,30.23,SW,229,0.0,0.0,90,0.00,,,0.00,WeatherDisplay:10.37,2013-01-20 07:20:00,
2013-01-19 23:25:00,38.7,36.0,30.23,SW,229,1.2,0.0,90,0.00,,,0.00,WeatherDisplay:10.37,2013-01-20 07:25:00,
2013-01-19 23:30:00,38.7,36.0,30.23,SW,229,0.0,0.0,90,0.00,,,0.00,WeatherDisplay:10.37,2013-01-20 07:30:00,
2013-01-19 23:35:00,38.5,35.8,30.23,SW,229,0.0,0.0,90,0.00,,,0.00,WeatherDisplay:10.37,2013-01-20 07:35:00,
2013-01-19 23:40:00,38.5,35.8,30.23,SW,229,0.0,0.0,90,0.00,,,0.00,WeatherDisplay:10.37,2013-01-20 07:40:00,
2013-01-19 23:45:00,38.4,35.7,30.23,SW,229,0.0,0.0,90,0.00,,,0.00,WeatherDisplay:10.37,2013-01-20 07:45:00,
2013-01-19 23:50:00,38.3,35.9,30.23,SW,229,0.0,0.0,91,0.00,CLR,,0.00,WeatherDisplay:10.37,2013-01-20 07:50:00,
2013-01-19 23:55:00,38.3,35.9,30.23,SW,229,0.0,0.0,91,0.00,,,0.00,WeatherDisplay:10.37,2013-01-20 07:55:00,